KLAN/LAN METAR and TAF weather

Enter ICAO airport designator
Station Type Date Time Source
KLAN METAR 2019/04/19 09:53 UTC NOAA

KLAN 190953Z 01007KT 10SM -RA OVC009 04/03 A2968 RMK AO2 SLP053 P0002 T00440033


Station Type Date Time Source
KLAN Decoded METAR 2019/04/19 09:53 UTC NOAA

CAPITAL CITY AIRPORT, MI, United States (KLAN) 42-47N 084-35W 264M
Apr 19, 2019 - 05:53 AM EDT / 2019.04.19 0953 UTC
Wind: from the N (010 degrees) at 8 MPH (7 KT):0
Visibility: 10 mile(s):0
Sky conditions: overcast
Weather: light rain
Precipitation last hour: 0.02 inches
Temperature: 39.9 F (4.4 C)
Dew Point: 37.9 F (3.3 C)
Relative Humidity: 92%
Pressure (altimeter): 29.68 in. Hg (1005 hPa)
ob: KLAN 190953Z 01007KT 10SM -RA OVC009 04/03 A2968 RMK AO2 SLP053 P0002 T00440033
cycle: 10

Station Type Date Time Source
KLAN TAF 2019/04/19 10:03 UTC NOAA

TAF
AMD KLAN 191001Z 1910/2006 01008KT P6SM -RA OVC009
FM191200 36012G20KT 4SM -RA BR OVC008
FM191700 02014G23KT 6SM -SHRA BR OVC010
FM192200 03017G28KT P6SM VCSH OVC020
FM200100 01013KT P6SM VCSH BKN040

Example: see airport list